Time;durP1;ratioP1;P1;durP2;ratioP2;P2;SDS_P1;SDS_P2;PMS_P1;PMS_P2;Temp;Humidity;BMP_temperature;BMP_pressure;BME280_temperature;BME280_humidity;BME280_pressure;Samples;Min_cycle;Max_cycle;Signal;HPM_P1;HPM_P2
2023/06/19 00:01:58;;;;;;;;;5.00;5.00;;;;;21.50;100.00;100865.91;5075231;28;62176;-76
2023/06/19 00:04:23;;;;;;;;;7.67;6.00;;;;;21.48;100.00;100855.25;5078978;28;45639;-76
2023/06/19 00:06:49;;;;;;;;;6.00;5.00;;;;;21.50;100.00;100860.53;5077716;28;54061;-76
2023/06/19 00:09:14;;;;;;;;;8.00;6.00;;;;;21.49;100.00;100865.03;5077980;28;66963;-76
2023/06/19 00:11:40;;;;;;;;;6.33;4.67;;;;;21.50;100.00;100853.38;5078798;28;45376;-75
2023/06/19 00:14:05;;;;;;;;;7.33;5.00;;;;;21.50;100.00;100858.75;5065220;28;61627;-75
2023/06/19 00:16:31;;;;;;;;;6.67;6.67;;;;;21.47;100.00;100858.84;5073050;28;47242;-76
2023/06/19 00:18:57;;;;;;;;;7.33;7.33;;;;;21.48;100.00;100865.97;5077973;28;45953;-76
2023/06/19 00:21:26;;;;;;;;;7.00;5.00;;;;;21.49;100.00;100875.78;5076391;28;45491;-76
2023/06/19 00:23:52;;;;;;;;;7.67;7.67;;;;;21.51;100.00;100875.72;5071514;28;45413;-76
2023/06/19 00:26:19;;;;;;;;;7.00;5.33;;;;;21.49;100.00;100873.09;5077063;28;45713;-76
2023/06/19 00:28:45;;;;;;;;;7.00;4.00;;;;;21.45;100.00;100880.38;5075626;28;45252;-75
2023/06/19 00:31:13;;;;;;;;;6.67;6.67;;;;;21.44;100.00;100878.63;5074357;28;45221;-76
2023/06/19 00:33:39;;;;;;;;;10.33;7.00;;;;;21.42;100.00;100888.56;5078331;28;45359;-76
2023/06/19 00:36:12;;;;;;;;;8.00;6.00;;;;;21.41;100.00;100886.81;5076505;28;46469;-76
2023/06/19 00:38:38;;;;;;;;;7.67;6.33;;;;;21.38;100.00;100886.91;5074662;28;45292;-75
2023/06/19 00:41:05;;;;;;;;;7.67;7.67;;;;;21.39;100.00;100896.72;5074441;28;45314;-75
2023/06/19 00:43:31;;;;;;;;;7.00;7.00;;;;;21.39;100.00;100895.81;5075570;28;45430;-76
2023/06/19 00:45:57;;;;;;;;;8.00;8.00;;;;;21.39;100.00;100903.88;5073169;28;46502;-75
2023/06/19 00:48:23;;;;;;;;;12.33;7.00;;;;;21.40;100.00;100911.88;5069734;28;45389;-75
2023/06/19 00:50:50;;;;;;;;;7.00;6.00;;;;;21.38;100.00;100912.88;5056221;28;64717;-76
2023/06/19 00:53:15;;;;;;;;;6.00;6.00;;;;;21.39;100.00;100920.00;5076717;28;45406;-76
2023/06/19 00:55:40;;;;;;;;;9.00;7.33;;;;;21.38;100.00;100915.56;5059364;28;52505;-76
2023/06/19 00:58:06;;;;;;;;;9.00;9.00;;;;;21.35;100.00;100916.53;5073409;28;65962;-76
2023/06/19 01:00:31;;;;;;;;;6.33;6.33;;;;;21.36;100.00;100917.41;5052848;28;63042;-75
2023/06/19 01:02:58;;;;;;;;;7.00;7.00;;;;;21.36;100.00;100914.72;5076354;28;60567;-75
2023/06/19 01:05:23;;;;;;;;;7.67;7.00;;;;;21.35;100.00;100913.84;5077567;28;46645;-75
2023/06/19 01:08:07;;;;;;;;;9.33;9.00;;;;;21.36;100.00;100925.47;5073842;28;59659;-75
2023/06/19 01:10:43;;;;;;;;;10.00;9.33;;;;;21.35;100.00;100921.03;5078225;28;45287;-75
2023/06/19 01:13:27;;;;;;;;;7.00;7.00;;;;;21.34;100.00;100919.28;5054450;28;45430;-76
2023/06/19 01:15:53;;;;;;;;;8.67;6.00;;;;;21.32;100.00;100922.00;5077393;28;47079;-76
2023/06/19 01:18:19;;;;;;;;;7.00;6.00;;;;;21.35;100.00;100934.44;5077503;28;45382;-76
2023/06/19 01:20:44;;;;;;;;;7.33;6.33;;;;;21.35;100.00;100934.44;5058769;28;45529;-76
2023/06/19 01:23:11;;;;;;;;;9.00;6.00;;;;;21.38;100.00;100942.44;5051339;28;45308;-76
2023/06/19 01:25:36;;;;;;;;;7.00;7.00;;;;;21.36;100.00;100931.75;5071926;28;46525;-76
2023/06/19 01:28:09;;;;;;;;;8.33;8.00;;;;;21.39;100.00;100939.69;5077430;28;45445;-76
2023/06/19 01:30:35;;;;;;;;;7.67;7.67;;;;;21.39;100.00;100934.31;5076754;28;45521;-76
2023/06/19 01:33:07;;;;;;;;;9.67;8.67;;;;;21.37;100.00;100933.50;5075693;28;62144;-76
2023/06/19 01:35:36;;;;;;;;;7.67;7.67;;;;;21.40;100.00;100932.50;5053672;28;47654;-76
2023/06/19 01:38:02;;;;;;;;;10.00;10.00;;;;;21.34;100.00;100917.47;5056341;28;45269;-76
2023/06/19 01:40:31;;;;;;;;;8.00;8.00;;;;;21.31;100.00;100914.91;5058771;28;45384;-76
2023/06/19 01:42:59;;;;;;;;;9.33;9.33;;;;;21.31;100.00;100922.06;5058491;28;45165;-75
2023/06/19 01:45:24;;;;;;;;;10.67;9.00;;;;;21.31;100.00;100920.25;5053524;28;47663;-76
2023/06/19 01:47:50;;;;;;;;;8.00;8.00;;;;;21.30;100.00;100931.91;5077292;28;45485;-76
2023/06/19 01:50:15;;;;;;;;;8.00;8.00;;;;;21.30;100.00;100928.34;5056524;28;54546;-76
2023/06/19 01:52:41;;;;;;;;;10.00;8.67;;;;;21.29;100.00;100922.06;5077297;28;45542;-76
2023/06/19 01:55:07;;;;;;;;;14.67;10.67;;;;;21.29;100.00;100935.50;5068384;28;46549;-76
2023/06/19 01:57:32;;;;;;;;;8.33;7.00;;;;;21.27;100.00;100934.69;5076107;28;45470;-75
2023/06/19 01:59:57;;;;;;;;;6.33;6.33;;;;;21.27;100.00;100932.00;5077073;28;61062;-76
2023/06/19 02:02:23;;;;;;;;;11.00;9.00;;;;;21.26;100.00;100932.94;5077316;28;45177;-76
2023/06/19 02:04:48;;;;;;;;;9.00;9.00;;;;;21.27;100.00;100934.69;5075830;28;46528;-76
2023/06/19 02:07:13;;;;;;;;;10.67;9.00;;;;;21.24;100.00;100932.06;5071868;28;69040;-75
2023/06/19 02:09:39;;;;;;;;;10.33;9.00;;;;;21.24;100.00;100934.75;5076174;28;45423;-76
2023/06/19 02:12:05;;;;;;;;;10.00;9.00;;;;;21.24;100.00;100945.50;5064853;28;45483;-76
2023/06/19 02:14:30;;;;;;;;;15.67;9.00;;;;;21.21;100.00;100939.38;5074294;28;46677;-76
2023/06/19 02:16:56;;;;;;;;;9.00;9.00;;;;;21.19;100.00;100936.72;5076253;28;62941;-76
2023/06/19 02:19:21;;;;;;;;;8.67;8.67;;;;;21.18;100.00;100941.22;5075334;28;55309;-76
2023/06/19 02:21:46;;;;;;;;;8.67;8.67;;;;;21.15;100.00;100932.38;5076224;28;57161;-75
2023/06/19 02:24:11;;;;;;;;;11.67;10.33;;;;;21.12;100.00;100941.41;5070687;28;66674;-76
2023/06/19 02:26:37;;;;;;;;;13.67;10.33;;;;;21.09;100.00;100937.91;5073110;28;65139;-76
2023/06/19 02:29:02;;;;;;;;;9.33;9.00;;;;;21.03;100.00;100933.63;5075593;28;63886;-76
2023/06/19 02:31:27;;;;;;;;;12.00;11.33;;;;;21.00;100.00;100935.53;5076833;28;45597;-76
2023/06/19 02:33:53;;;;;;;;;10.33;10.33;;;;;20.97;100.00;100936.50;5067524;28;66414;-76
2023/06/19 02:36:21;;;;;;;;;13.00;9.67;;;;;20.94;100.00;100936.59;5071137;28;60160;-75
2023/06/19 02:38:47;;;;;;;;;12.67;10.00;;;;;20.93;100.00;100943.78;5065313;28;45420;-75
2023/06/19 02:41:13;;;;;;;;;11.33;11.33;;;;;20.91;100.00;100950.09;5064218;28;45618;-76
2023/06/19 02:43:40;;;;;;;;;11.33;10.00;;;;;20.90;100.00;100951.91;5073627;28;46494;-75
2023/06/19 02:46:05;;;;;;;;;10.33;10.33;;;;;20.88;100.00;100950.22;5068853;28;45367;-76
2023/06/19 02:48:31;;;;;;;;;10.33;9.00;;;;;20.90;100.00;100959.09;5072243;28;62702;-75
2023/06/19 02:50:56;;;;;;;;;10.33;9.00;;;;;20.90;100.00;100959.09;5073819;28;63463;-75
2023/06/19 02:53:21;;;;;;;;;13.00;10.67;;;;;20.89;100.00;100963.59;5075014;28;61745;-76
2023/06/19 02:55:47;;;;;;;;;16.67;12.33;;;;;20.89;100.00;100960.03;5075908;28;45391;-76
2023/06/19 02:58:12;;;;;;;;;14.00;10.00;;;;;20.89;100.00;100962.72;5072605;28;66364;-76
2023/06/19 03:00:37;;;;;;;;;10.33;9.33;;;;;20.89;100.00;100963.59;5070374;28;53327;-76
2023/06/19 03:03:03;;;;;;;;;11.67;11.67;;;;;20.85;100.00;100961.91;5072045;28;66404;-75
2023/06/19 03:05:28;;;;;;;;;9.33;9.33;;;;;20.86;100.00;100963.66;5074749;28;45401;-75
2023/06/19 03:07:53;;;;;;;;;11.33;10.00;;;;;20.81;100.00;100948.63;5070292;28;45412;-76
2023/06/19 03:10:19;;;;;;;;;14.33;13.00;;;;;20.79;100.00;100946.00;5076971;28;48043;-76
2023/06/19 03:12:44;;;;;;;;;15.33;12.33;;;;;20.76;100.00;100955.91;5079277;28;46544;-76
2023/06/19 03:15:10;;;;;;;;;11.00;10.00;;;;;20.69;100.00;100949.84;5075615;28;51631;-75
2023/06/19 03:17:35;;;;;;;;;10.33;9.00;;;;;20.66;100.00;100945.44;5072896;28;46566;-75
2023/06/19 03:20:01;;;;;;;;;12.33;12.33;;;;;20.67;100.00;100952.59;5078653;28;45540;-76
2023/06/19 03:22:26;;;;;;;;;11.67;10.00;;;;;20.66;100.00;100952.63;5076400;28;62920;-76
2023/06/19 03:24:52;;;;;;;;;10.67;10.67;;;;;20.66;100.00;100953.50;5076243;28;45428;-76
2023/06/19 03:27:17;;;;;;;;;15.33;12.33;;;;;20.66;100.00;100944.56;5075570;28;45466;-76
2023/06/19 03:29:42;;;;;;;;;13.00;13.00;;;;;20.69;100.00;100948.97;5075394;28;45336;-76
2023/06/19 03:32:08;;;;;;;;;13.67;13.67;;;;;20.69;100.00;100963.28;5076053;28;57993;-75
2023/06/19 03:34:33;;;;;;;;;12.33;10.67;;;;;20.69;100.00;100960.59;5071855;28;45317;-75
2023/06/19 03:36:59;;;;;;;;;13.33;11.67;;;;;20.68;100.00;100964.22;5072057;28;45304;-75
2023/06/19 03:39:24;;;;;;;;;9.67;9.00;;;;;20.70;100.00;100969.53;5077907;28;45526;-76
2023/06/19 03:41:50;;;;;;;;;13.33;11.67;;;;;20.68;100.00;100966.88;5073187;28;47360;-76
2023/06/19 03:44:15;;;;;;;;;11.00;11.00;;;;;20.66;100.00;100972.28;5075137;28;67901;-75
2023/06/19 03:46:40;;;;;;;;;11.33;11.33;;;;;20.64;100.00;100971.44;5071366;28;56514;-76
2023/06/19 03:49:06;;;;;;;;;13.67;10.67;;;;;20.63;100.00;100966.13;5079577;28;46720;-76
2023/06/19 03:51:32;;;;;;;;;10.33;10.33;;;;;20.64;100.00;100971.44;5075019;28;46143;-75
2023/06/19 03:53:57;;;;;;;;;12.33;11.00;;;;;20.63;100.00;100964.34;5078956;28;45394;-75
2023/06/19 03:56:23;;;;;;;;;16.33;10.67;;;;;20.61;100.00;100968.88;5075057;28;45519;-76
2023/06/19 03:58:48;;;;;;;;;12.33;12.33;;;;;20.61;100.00;100978.69;5073403;28;62557;-76
2023/06/19 04:01:13;;;;;;;;;11.67;11.67;;;;;20.59;100.00;100973.38;5070931;28;46586;-76
2023/06/19 04:03:39;;;;;;;;;12.33;11.00;;;;;20.58;100.00;100978.81;5076093;28;68839;-76
2023/06/19 04:06:04;;;;;;;;;15.67;11.00;;;;;20.57;100.00;100980.59;5074047;28;61942;-76
2023/06/19 04:08:29;;;;;;;;;11.00;7.00;;;;;20.56;100.00;100983.31;5070258;28;63398;-75
2023/06/19 04:10:55;;;;;;;;;12.00;12.00;;;;;20.54;100.00;100974.44;5076507;28;47323;-75
2023/06/19 04:13:20;;;;;;;;;16.00;14.00;;;;;20.52;100.00;100973.63;5078275;28;46828;-76
2023/06/19 04:15:46;;;;;;;;;14.00;14.00;;;;;20.52;100.00;100979.84;5075043;28;64619;-75
2023/06/19 04:18:12;;;;;;;;;12.67;12.33;;;;;20.52;100.00;100978.97;5075578;28;45605;-76
2023/06/19 04:20:37;;;;;;;;;10.33;10.33;;;;;20.50;100.00;100981.69;5074673;28;46324;-76
2023/06/19 04:23:02;;;;;;;;;14.00;14.00;;;;;20.52;100.00;100978.97;5076876;28;45383;-75
2023/06/19 04:25:28;;;;;;;;;13.33;13.00;;;;;20.55;100.00;100984.25;5077794;28;45419;-76
2023/06/19 04:27:53;;;;;;;;;13.00;13.00;;;;;20.56;100.00;100991.34;5076232;28;45189;-75
2023/06/19 04:30:20;;;;;;;;;18.00;14.67;;;;;20.58;100.00;100995.78;5076940;28;69168;-77
2023/06/19 04:32:46;;;;;;;;;15.67;15.67;;;;;20.54;100.00;100998.59;5074005;28;45508;-76
2023/06/19 04:35:11;;;;;;;;;16.00;16.00;;;;;20.52;100.00;101004.00;5073472;28;45586;-76
2023/06/19 04:37:37;;;;;;;;;14.00;12.33;;;;;20.52;100.00;101022.78;5071939;28;58248;-75
2023/06/19 04:40:03;;;;;;;;;13.67;13.00;;;;;20.52;100.00;101016.53;5070171;28;66589;-76
2023/06/19 04:42:29;;;;;;;;;12.67;12.67;;;;;20.55;100.00;101029.84;5071569;28;45427;-76
2023/06/19 04:44:55;;;;;;;;;15.33;11.67;;;;;20.53;100.00;101018.28;5076506;28;45329;-75
2023/06/19 04:47:23;;;;;;;;;15.33;12.00;;;;;20.56;100.00;101026.22;5070002;28;45370;-76
2023/06/19 04:49:48;;;;;;;;;15.67;14.67;;;;;20.57;100.00;101022.66;5074926;28;46447;-76
2023/06/19 04:52:14;;;;;;;;;15.00;12.67;;;;;20.58;100.00;101011.00;5075113;28;45306;-76
2023/06/19 04:54:39;;;;;;;;;15.67;13.00;;;;;20.58;100.00;101013.69;5076911;28;61376;-76
2023/06/19 04:57:05;;;;;;;;;11.33;11.33;;;;;20.60;100.00;101017.19;5078094;28;45573;-75
2023/06/19 04:59:30;;;;;;;;;17.33;13.00;;;;;20.63;100.00;101025.16;5076979;28;46447;-75
2023/06/19 05:01:56;;;;;;;;;11.67;11.67;;;;;20.63;100.00;101031.41;5073100;28;46182;-76
2023/06/19 05:04:22;;;;;;;;;14.33;14.33;;;;;20.65;100.00;101023.31;5077047;28;45470;-75
2023/06/19 05:06:48;;;;;;;;;15.00;15.00;;;;;20.65;100.00;101023.31;5071002;28;45600;-76
2023/06/19 05:09:13;;;;;;;;;13.67;13.67;;;;;20.68;100.00;101017.88;5072489;28;47621;-76
2023/06/19 05:11:38;;;;;;;;;14.00;12.67;;;;;20.72;100.00;101016.88;5074616;28;66903;-76
2023/06/19 05:14:04;;;;;;;;;14.00;12.33;;;;;20.70;100.00;101016.00;5074375;28;60600;-76
2023/06/19 05:16:29;;;;;;;;;15.00;12.33;;;;;20.76;100.00;101031.06;5074925;28;59624;-76
2023/06/19 05:18:54;;;;;;;;;14.00;14.00;;;;;20.75;100.00;101026.63;5069028;28;67944;-75
2023/06/19 05:21:20;;;;;;;;;16.00;13.67;;;;;20.76;100.00;101029.25;5073549;28;66415;-75
2023/06/19 05:23:50;;;;;;;;;20.67;16.67;;;;;20.79;100.00;101021.13;5076761;28;45382;-76
2023/06/19 05:26:16;;;;;;;;;19.33;17.00;;;;;20.81;100.00;101008.53;5072778;28;45144;-76
2023/06/19 05:28:41;;;;;;;;;13.00;12.00;;;;;20.86;100.00;101011.09;5075357;28;47261;-75
2023/06/19 05:31:06;;;;;;;;;15.67;13.67;;;;;20.86;100.00;101014.66;5071861;28;67723;-77
2023/06/19 05:33:31;;;;;;;;;13.67;13.67;;;;;20.90;100.00;101013.66;5075982;28;63741;-74
2023/06/19 05:35:57;;;;;;;;;15.33;14.00;;;;;20.93;100.00;101018.94;5073207;28;61278;-72
2023/06/19 05:38:23;;;;;;;;;14.33;14.33;;;;;20.95;100.00;101015.31;5071393;27;61946;-74
2023/06/19 05:40:48;;;;;;;;;10.00;8.67;;;;;21.02;100.00;101019.59;5075240;27;45417;-73
2023/06/19 05:43:14;;;;;;;;;16.33;15.00;;;;;21.10;100.00;101014.88;5058191;28;45312;-73
2023/06/19 05:45:39;;;;;;;;;12.67;10.33;;;;;21.12;100.00;101011.22;5076574;28;45485;-73
2023/06/19 05:48:04;;;;;;;;;14.00;14.00;;;;;21.18;100.00;100999.41;5072126;27;46653;-74
2023/06/19 05:50:30;;;;;;;;;13.67;13.67;;;;;21.24;100.00;100992.97;5072156;27;64740;-73
2023/06/19 05:52:56;;;;;;;;;17.00;14.67;;;;;21.31;100.00;100992.78;5075242;28;45447;-73
2023/06/19 05:55:21;;;;;;;;;16.67;14.67;;;;;21.36;100.00;100996.22;5076908;28;46011;-73
2023/06/19 05:57:46;;;;;;;;;17.67;14.67;;;;;21.40;100.00;100986.22;5075500;28;69674;-74
2023/06/19 06:00:14;;;;;;;;;17.00;13.33;;;;;21.49;100.00;100985.94;5074507;27;67801;-73
2023/06/19 06:02:40;;;;;;;;;12.00;11.33;;;;;21.59;100.00;100998.16;5075273;28;45532;-74
2023/06/19 06:05:08;;;;;;;;;15.67;15.67;;;;;21.66;100.00;100990.78;5075695;28;45474;-72
2023/06/19 06:07:34;;;;;;;;;14.00;11.00;;;;;21.77;100.00;100985.06;5075735;28;46724;-73
2023/06/19 06:09:59;;;;;;;;;18.00;16.67;;;;;21.82;100.00;100992.03;5075237;28;45358;-72
2023/06/19 06:12:24;;;;;;;;;15.00;15.00;;;;;21.86;100.00;100996.38;5075757;28;63323;-73
2023/06/19 06:14:50;;;;;;;;;17.00;17.00;;;;;21.89;100.00;100993.63;5072161;28;58462;-72
2023/06/19 06:17:15;;;;;;;;;16.33;13.00;;;;;21.93;100.00;101002.44;5074985;28;60835;-73
2023/06/19 06:19:40;;;;;;;;;15.00;12.00;;;;;21.89;100.00;100996.31;5192591;22;68559;-73
2023/06/19 06:22:05;;;;;;;;;14.67;11.67;;;;;21.89;100.00;101000.78;5074116;28;61582;-73
2023/06/19 06:24:31;;;;;;;;;16.67;14.00;;;;;21.84;100.00;101003.63;5071865;28;60423;-74
2023/06/19 06:26:56;;;;;;;;;16.67;13.33;;;;;21.82;100.00;101004.59;5072133;28;50641;-73
2023/06/19 06:29:22;;;;;;;;;17.33;13.33;;;;;21.80;100.00;101003.78;5070943;28;45281;-75
2023/06/19 06:31:47;;;;;;;;;14.00;14.00;;;;;21.79;100.00;101002.91;5074651;28;59689;-74
2023/06/19 06:34:13;;;;;;;;;14.33;14.33;;;;;21.76;100.00;101010.19;5073789;28;64147;-74
2023/06/19 06:36:39;;;;;;;;;17.33;15.00;;;;;21.77;100.00;101012.81;5075622;28;46692;-74
2023/06/19 06:39:05;;;;;;;;;16.33;16.33;;;;;21.76;100.00;101015.56;5077503;27;45385;-74
2023/06/19 06:41:31;;;;;;;;;16.33;13.00;;;;;21.71;100.00;101027.31;5076395;28;45383;-74
2023/06/19 06:43:56;;;;;;;;;17.67;17.33;;;;;21.73;100.00;101024.59;5075296;28;45300;-74
2023/06/19 06:46:22;;;;;;;;;15.00;14.33;;;;;21.74;100.00;101039.81;5075249;28;68208;-73
2023/06/19 06:48:48;;;;;;;;;15.00;14.00;;;;;21.75;100.00;101030.81;5074739;28;69073;-74
2023/06/19 06:51:14;;;;;;;;;15.33;14.33;;;;;21.79;100.00;101037.84;5073385;28;45414;-74
2023/06/19 06:53:39;;;;;;;;;13.67;13.00;;;;;21.84;100.00;101041.28;5075132;28;62640;-75
2023/06/19 06:56:05;;;;;;;;;15.00;14.00;;;;;21.89;100.00;101049.16;5075079;28;70073;-73
2023/06/19 06:58:30;;;;;;;;;16.67;14.67;;;;;21.94;100.00;101045.44;5075925;28;45425;-73
2023/06/19 07:00:56;;;;;;;;;12.00;12.00;;;;;22.03;100.00;101049.59;5069564;28;63300;-74
2023/06/19 07:03:21;;;;;;;;;11.00;9.67;;;;;22.09;100.00;101057.47;5076135;28;45550;-74
2023/06/19 07:05:48;;;;;;;;;11.67;11.67;;;;;22.16;100.00;101058.19;5074324;28;60144;-73
2023/06/19 07:08:13;;;;;;;;;11.00;11.00;;;;;22.24;100.00;101058.81;5074088;28;45425;-74
2023/06/19 07:10:38;;;;;;;;;8.67;7.67;;;;;22.36;100.00;101061.06;5075536;28;45392;-74
2023/06/19 07:13:04;;;;;;;;;18.67;14.67;;;;;22.46;100.00;101059.81;5071726;28;65436;-74
2023/06/19 07:15:29;;;;;;;;;20.67;16.00;;;;;22.59;100.00;101054.91;5070684;28;66610;-73
2023/06/19 07:17:56;;;;;;;;;14.00;11.67;;;;;22.68;100.00;101059.06;5069846;28;66794;-72
2023/06/19 07:20:21;;;;;;;;;15.67;12.00;;;;;22.73;100.00;101049.00;5064228;28;45785;-74
2023/06/19 07:22:46;;;;;;;;;17.00;14.00;;;;;22.75;100.00;101036.41;5070319;28;61933;-73
2023/06/19 07:25:12;;;;;;;;;16.00;16.00;;;;;22.79;100.00;101040.72;5069125;28;47385;-73
2023/06/19 07:27:38;;;;;;;;;22.33;16.00;;;;;22.77;100.00;101029.13;5070118;27;45622;-73
2023/06/19 07:30:04;;;;;;;;;12.00;12.00;;;;;22.77;100.00;101039.91;5072665;28;45572;-75
2023/06/19 07:32:29;;;;;;;;;17.00;13.00;;;;;22.74;100.00;101035.53;5071000;27;45880;-74
2023/06/19 07:34:54;;;;;;;;;16.33;14.00;;;;;22.70;100.00;101033.88;5071334;27;69789;-72
2023/06/19 07:37:20;;;;;;;;;15.33;12.00;;;;;;;;5073599;27;68542;-74
2023/06/19 07:39:46;;;;;;;;;12.00;12.00;;;;;22.61;100.00;101033.31;5074898;28;45422;-74
2023/06/19 07:42:13;;;;;;;;;17.00;14.33;;;;;22.59;100.00;101036.06;5072671;27;45574;-74
2023/06/19 07:44:38;;;;;;;;;14.67;14.67;;;;;22.60;100.00;101043.19;5070596;28;46569;-75
2023/06/19 07:47:04;;;;;;;;;16.33;12.33;;;;;22.63;100.00;101047.59;5067311;27;70547;-72
2023/06/19 07:49:29;;;;;;;;;15.67;14.00;;;;;22.60;100.00;101036.94;5072002;28;45285;-72
2023/06/19 07:51:54;;;;;;;;;15.33;14.00;;;;;22.57;100.00;101032.53;5073154;27;62410;-74
2023/06/19 07:54:20;;;;;;;;;15.33;14.00;;;;;22.58;100.00;101030.72;5072377;28;69316;-75
2023/06/19 07:56:45;;;;;;;;;17.33;13.33;;;;;22.58;100.00;101030.72;5074998;27;50121;-74
2023/06/19 07:59:11;;;;;;;;;15.00;13.33;;;;;22.61;100.00;101036.00;5074323;28;45363;-75
2023/06/19 08:01:36;;;;;;;;;14.67;14.67;;;;;;;;5072762;27;45472;-75
2023/06/19 08:04:01;;;;;;;;;13.33;12.00;;;;;22.72;100.00;101028.41;5076968;28;45486;-75
2023/06/19 08:06:27;;;;;;;;;16.00;13.33;;;;;22.80;100.00;101034.41;5077342;27;45478;-75
2023/06/19 08:08:52;;;;;;;;;11.00;11.00;;;;;22.86;100.00;101028.81;5076226;28;57145;-74
2023/06/19 08:11:17;;;;;;;;;15.67;14.33;;;;;22.89;100.00;101028.72;5075743;27;45279;-74
2023/06/19 08:13:43;;;;;;;;;19.00;16.00;;;;;22.91;100.00;101029.56;5075758;28;71669;-74
2023/06/19 08:16:10;;;;;;;;;19.00;16.67;;;;;22.96;100.00;101026.69;5076344;27;46364;-74
2023/06/19 08:18:35;;;;;;;;;16.33;16.33;;;;;23.07;100.00;101037.06;5054727;28;45214;-74
2023/06/19 08:21:00;;;;;;;;;20.00;18.33;;;;;23.10;100.00;101029.72;5075046;27;45372;-74
2023/06/19 08:23:26;;;;;;;;;20.33;20.33;;;;;23.20;100.00;101033.81;5073045;28;65029;-74
2023/06/19 08:25:51;;;;;;;;;14.33;14.33;;;;;23.35;100.00;101035.06;5075796;28;45874;-74
2023/06/19 08:28:17;;;;;;;;;18.00;17.00;;;;;23.45;100.00;101033.78;5075800;28;63884;-75
2023/06/19 08:30:44;;;;;;;;;16.00;14.33;;;;;23.56;100.00;101038.75;5075370;27;45514;-74
2023/06/19 08:33:10;;;;;;;;;17.67;16.00;;;;;23.70;100.00;101038.19;5060259;28;47258;-74
2023/06/19 08:35:35;;;;;;;;;18.33;16.67;;;;;23.82;100.00;101036.84;5078497;28;45337;-74
2023/06/19 08:38:00;;;;;;;;;19.00;17.67;;;;;23.94;100.00;101036.34;5072496;28;46517;-74
2023/06/19 08:40:26;;;;;;;;;18.33;16.00;;;;;24.03;100.00;101023.34;5077485;28;45505;-74
2023/06/19 08:42:52;;;;;;;;;12.00;12.00;;;;;24.15;100.00;101023.78;5077109;28;67580;-75
2023/06/19 08:45:20;;;;;;;;;16.00;15.00;;;;;24.24;100.00;101026.09;5059186;28;45551;-75
2023/06/19 08:47:47;;;;;;;;;12.33;11.33;;;;;24.28;100.00;101020.47;5078120;28;45316;-74
2023/06/19 08:50:13;;;;;;;;;11.00;11.00;;;;;24.37;100.00;101024.66;5078147;28;45576;-75
2023/06/19 08:52:38;;;;;;;;;14.00;12.00;;;;;24.46;100.00;101021.56;5076096;28;71068;-75
2023/06/19 08:55:04;;;;;;;;;13.00;13.00;;;;;24.54;100.00;101022.06;5074934;28;45553;-75
2023/06/19 08:57:38;;;;;;;;;15.33;14.00;;;;;24.59;100.00;101015.59;5076805;28;45496;-75
2023/06/19 09:00:08;;;;;;;;;9.67;9.00;;;;;24.63;100.00;101025.34;5076513;28;45924;-76
2023/06/19 09:02:44;;;;;;;;;16.33;13.00;;;;;24.63;100.00;101017.22;5074853;28;47467;-76
2023/06/19 09:05:15;;;;;;;;;11.33;11.33;;;;;24.58;100.00;101017.44;5070838;28;45446;-75
2023/06/19 09:07:42;;;;;;;;;14.00;10.67;;;;;24.51;100.00;101010.56;5071359;28;45335;-74
2023/06/19 09:10:18;;;;;;;;;10.67;9.33;;;;;24.44;100.00;101003.66;5058569;28;46334;-74
2023/06/19 09:12:44;;;;;;;;;14.00;13.00;;;;;24.43;100.00;101002.78;5074534;28;46505;-75
2023/06/19 09:15:14;;;;;;;;;12.00;12.00;;;;;24.39;100.00;101006.56;5076852;28;45388;-74
2023/06/19 09:17:39;;;;;;;;;11.33;8.00;;;;;24.41;100.00;101006.50;5072754;28;45525;-74
2023/06/19 09:20:05;;;;;;;;;12.33;11.00;;;;;24.41;100.00;101004.69;5073488;28;45418;-75
2023/06/19 09:22:32;;;;;;;;;11.00;10.00;;;;;24.45;100.00;101000.00;5072807;28;47382;-75
2023/06/19 09:25:02;;;;;;;;;6.67;6.67;;;;;24.48;100.00;101010.69;5057716;28;45460;-75
2023/06/19 09:27:33;;;;;;;;;9.00;8.67;;;;;24.53;100.00;101001.44;5074708;28;45524;-75
2023/06/19 09:29:58;;;;;;;;;5.67;5.00;;;;;24.60;100.00;100999.31;5072577;28;45499;-75
2023/06/19 09:32:28;;;;;;;;;7.00;7.00;;;;;24.73;100.00;100999.69;5071820;28;46639;-75
2023/06/19 09:34:58;;;;;;;;;8.00;7.00;;;;;24.81;100.00;100992.09;5074573;28;45494;-76
2023/06/19 09:37:25;;;;;;;;;8.67;8.67;;;;;24.92;100.00;100992.47;5074685;28;45637;-75
2023/06/19 09:39:54;;;;;;;;;8.33;8.33;;;;;25.11;100.00;100995.25;5072225;27;45406;-74
2023/06/19 09:42:26;;;;;;;;;6.00;6.00;;;;;25.27;100.00;100995.41;5073689;27;46624;-74
2023/06/19 09:44:56;;;;;;;;;9.67;7.00;;;;;25.42;100.00;100997.38;5076530;28;45475;-74
2023/06/19 09:47:24;;;;;;;;;7.33;7.33;;;;;25.50;100.00;100999.69;5075550;27;45477;-74
2023/06/19 09:49:54;;;;;;;;;6.33;6.33;;;;;25.56;100.00;100986.75;5070379;28;45541;-76
2023/06/19 09:52:22;;;;;;;;;49.75;40.50;;;;;25.64;100.00;100993.63;5075620;27;47514;-77
2023/06/19 09:54:49;;;;;;;;;156.50;146.50;;;;;25.71;100.00;100987.81;5072677;28;45533;-75
2023/06/19 09:57:15;;;;;;;;;78.00;66.75;;;;;25.79;100.00;100982.09;5076916;27;45331;-77
2023/06/19 09:59:41;;;;;;;;;64.75;49.50;;;;;25.86;100.00;100983.50;5076940;28;46485;-76
2023/06/19 10:02:07;;;;;;;;;7.33;6.67;;;;;25.89;100.00;100975.25;5069061;27;46803;-76
2023/06/19 10:04:45;;;;;;;;;322.75;274.50;;;;;25.93;100.00;100976.84;5055899;28;45352;-76
2023/06/19 10:07:20;;;;;;;;;906.60;679.20;;;;;25.98;100.00;100976.59;5074199;27;45457;-77
2023/06/19 10:10:06;;;;;;;;;82.00;73.00;;;;;26.06;100.00;100977.09;5075443;28;45482;-77
2023/06/19 10:12:44;;;;;;;;;87.75;73.25;;;;;26.08;100.00;100975.19;5072474;27;47481;-76
2023/06/19 10:15:11;;;;;;;;;71.50;52.75;;;;;26.10;100.00;100976.88;5068003;28;45392;-77
2023/06/19 10:17:37;;;;;;;;;102.75;89.75;;;;;26.11;100.00;100975.91;5073780;27;45500;-78
2023/06/19 10:20:03;;;;;;;;;17.00;17.00;;;;;26.10;100.00;100968.75;5073402;28;45510;-75
2023/06/19 10:22:32;;;;;;;;;27.00;26.00;;;;;26.08;100.00;100969.78;5075664;27;47883;-80
2023/06/19 10:24:57;;;;;;;;;11.00;7.00;;;;;26.10;100.00;100973.28;5076511;28;45418;-77
2023/06/19 10:27:24;;;;;;;;;8.33;8.00;;;;;26.11;100.00;100975.91;5056822;28;45457;-80
2023/06/19 10:29:54;;;;;;;;;8.00;8.00;;;;;26.11;100.00;100970.50;5076665;28;45539;-80
2023/06/19 10:32:19;;;;;;;;;8.00;6.67;;;;;26.13;100.00;100965.88;5075391;28;46592;-76
2023/06/19 10:34:47;;;;;;;;;15.00;11.33;;;;;26.18;100.00;100962.06;5056008;28;45533;-76
2023/06/19 10:37:12;;;;;;;;;6.00;5.00;;;;;26.20;100.00;100950.19;5075294;28;45320;-76
2023/06/19 10:39:38;;;;;;;;;7.67;7.67;;;;;26.19;100.00;100952.97;5073498;28;45427;-80
2023/06/19 10:42:08;;;;;;;;;8.67;6.67;;;;;26.27;100.00;100945.34;5071778;28;73946;-77
2023/06/19 10:44:33;;;;;;;;;6.67;5.67;;;;;26.41;100.00;100945.47;5070855;28;45489;-78
2023/06/19 10:46:58;;;;;;;;;3.67;3.67;;;;;26.59;100.00;100951.78;5058431;28;45993;-76
2023/06/19 10:49:24;;;;;;;;;7.00;7.00;;;;;26.75;100.00;100946.41;5056792;28;58378;-76
2023/06/19 10:51:50;;;;;;;;;5.00;5.00;;;;;26.90;100.00;100946.47;5071278;28;71288;-76
2023/06/19 10:54:16;;;;;;;;;5.00;5.00;;;;;27.04;100.00;100951.09;5073380;28;45465;-76
2023/06/19 10:56:43;;;;;;;;;8.67;7.33;;;;;27.15;100.00;100959.53;5075508;28;47063;-75
2023/06/19 10:59:10;;;;;;;;;7.67;7.00;;;;;27.28;100.00;100957.03;5075191;28;45383;-76
2023/06/19 11:01:37;;;;;;;;;12.67;9.00;;;;;27.37;100.00;100951.03;5073025;28;47461;-76
2023/06/19 11:04:07;;;;;;;;;8.67;7.67;;;;;27.40;100.00;100950.00;5071700;28;45320;-76